PANC/ANC METAR and TAF weather

Enter ICAO airport designator
Station Type Date Time Source
PANC METAR 2020/04/02 02:53 UTC NOAA

PANC 020253Z 32005KT 10SM FEW050 SCT070 BKN100 OVC200 01/M08 A3032 RMK AO2 SLP270 T00061083 $


Station Type Date Time Source
PANC Decoded METAR 2020/04/02 02:53 UTC NOAA

TED STEVENS ANCHORAGE INTERNATIONAL , AK, United States (PANC) 61-10N 150-02W 48M
Apr 01, 2020 - 10:53 PM EDT / 2020.04.02 0253 UTC
Wind: from the NW (320 degrees) at 6 MPH (5 KT):0
Visibility: 10 mile(s):0
Sky conditions: overcast
Temperature: 33.1 F (0.6 C)
Windchill: 28 F (-2 C):1
Dew Point: 17.1 F (-8.3 C)
Relative Humidity: 51%
Pressure (altimeter): 30.32 in. Hg (1026 hPa)
ob: PANC 020253Z 32005KT 10SM FEW050 SCT070 BKN100 OVC200 01/M08 A3032 RMK AO2 SLP270 T00061083
cycle: 3

Station Type Date Time Source
PANC TAF 2020/04/01 18:22 UTC NOAA

TAF PANC 011720Z 0118/0224 36005KT P6SM OVC060
FM021600 VRB04KT 4SM -SN OVC025
FM022000 VRB03KT 3SM -SN OVC015

Example: see airport list